Weather observations for the past three days for
Placerville Airport
Imperial (Metric)
Date Time (pdt) Wind (mph) Vis. (mi.) Weather Sky Cond. Temperature (ºF) Relative Humidity Wind Chill (°F) Heat Index (°F) Pressure Precipitation (in)
Air Dwpt 6 hour altimeter (in) sea level (mb) 1 hr 3 hr 6 hr
Max. Min.
07 21:55 Calm 10.00 NULL NULL 64.4 55.4 73% 30.09 0.0
07 21:35 Calm 10.00 NULL NULL 62.6 55.4 77% 30.09 0.0
07 21:15 Calm 10.00 NULL NULL 64.4 55.4 73% 30.09 0.0
07 20:55 Calm 10.00 NULL NULL 66.2 55.4 68% 30.09 0.0
07 20:35 Calm 10.00 NULL NULL 68 53.6 60% 30.08 0.0
07 20:15 Calm 10.00 NULL NULL 68 53.6 60% 30.08 0.0
07 19:55 Calm 10.00 NULL NULL 69.8 53.6 57% 30.08 0.0
07 19:35 Calm 10.00 NULL NULL 71.6 53.6 53% 30.07 0.0
07 19:15 Calm 10.00 NULL NULL 71.6 53.6 53% 30.07 0.0
07 18:55 Calm 10.00 NULL NULL 71.6 53.6 53% 30.07 0.0
07 18:35 Calm 10.00 NULL NULL 73.4 53.6 50% 30.07 0.0
07 18:15 Calm 10.00 NULL NULL 73.4 53.6 50% 30.08 0.0
07 17:55 Calm 10.00 NULL NULL 73.4 55.4 53% 30.08 0.0
07 17:35 Calm 10.00 NULL NULL 73.4 55.4 53% 30.08 0.0
07 17:15 E 6 10.00 NULL NULL 75.2 55.4 50% 78 30.08 0.0
07 16:55 E 7 10.00 NULL NULL 75.2 55.4 50% 78 30.08 0.0
07 16:35 E 3 10.00 NULL NULL 75.2 55.4 50% 78 30.08 0.0
07 16:15 E 5 10.00 NULL NULL 73.4 55.4 53% 30.08 0.0
07 15:55 E 5 10.00 NULL NULL 75.2 55.4 50% 78 30.09 0.0
07 15:35 Calm 10.00 NULL NULL 75.2 57.2 54% 78 30.09 0.0
07 15:15 E 5 10.00 NULL NULL 73.4 57.2 57% 30.1 0.0
07 14:55 E 7 10.00 NULL NULL 73.4 59 61% 30.1 0.0
07 14:35 E 6 10.00 Fair CLR 73.4 59 61% 30.11 0.0
07 14:15 Calm 10.00 Fair CLR 73.4 59 61% 30.12 0.0
07 13:15 E 6 10.00 Fair CLR 73.4 57.2 57% 30.13 0.0
07 12:55 E 5 10.00 Fair CLR 73.4 57.2 57% 30.13 0.0
07 12:35 E 3 10.00 Fair CLR 73.4 57.2 57% 30.13 0.0
07 12:15 E 7 10.00 Fair CLR 73.4 57.2 57% 30.13 0.0
07 11:55 NE 6 10.00 Fair CLR 71.6 55.4 57% 30.14 0.0
07 11:35 NE 3 10.00 Fair CLR 71.6 55.4 57% 30.14 0.0
07 11:15 Calm 10.00 Fair CLR 69.8 55.4 60% 30.15 0.0
07 10:55 Calm 10.00 Fair CLR 69.8 55.4 60% 30.14 0.0
07 10:35 Calm 10.00 Fair CLR 68 55.4 64% 30.14 0.0
07 10:15 Calm 10.00 Fair CLR 68 55.4 64% 30.14 0.0
07 09:55 Calm 10.00 Fair CLR 68 55.4 64% 30.14 0.0
07 09:35 Calm 10.00 Fair CLR 66.2 55.4 68% 30.14 0.0
07 09:15 Calm 10.00 Fair CLR 66.2 55.4 68% 30.15 0.0
07 08:55 Calm 10.00 Fair CLR 64.4 55.4 73% 30.14 0.0
07 08:35 Calm 10.00 Fair CLR 62.6 55.4 77% 30.14 0.0
07 08:15 Calm 10.00 Fair CLR 62.6 55.4 77% 30.14 0.0
07 07:55 Calm 10.00 Fair CLR 62.6 53.6 73% 30.14 0.0
07 07:35 Calm 10.00 Fair CLR 59 53.6 82% 30.14 0.0
07 07:15 Calm 10.00 Fair CLR 59 53.6 82% 30.14 0.0
07 06:55 Calm 10.00 Fair CLR 59 53.6 82% 30.13 0.0
07 06:35 Calm 10.00 Fair CLR 57.2 53.6 88% 30.13 0.0
07 06:15 Calm 10.00 Fair CLR 55.4 53.6 94% 30.12 0.0
07 05:55 Calm 10.00 Fair CLR 57.2 53.6 88% 30.12 0.0
07 05:35 Calm 10.00 Fair CLR 55.4 53.6 94% 30.12 0.0
07 05:15 Calm 10.00 Fair CLR 57.2 53.6 88% 30.12 0.0
07 04:55 Calm 10.00 Fair CLR 57.2 53.6 88% 30.12 0.0
07 04:35 Calm 10.00 Fair CLR 57.2 53.6 88% 30.12 0.0
07 04:15 Calm 10.00 Fair CLR 57.2 53.6 88% 30.12 0.0
07 03:55 Calm 10.00 Fair CLR 57.2 53.6 88% 30.12 0.0
07 03:35 Calm 10.00 Fair CLR 55.4 53.6 94% 30.11 0.0
07 03:15 Calm 10.00 Fair CLR 57.2 53.6 88% 30.12 0.0
07 02:55 Calm 10.00 Fair CLR 57.2 53.6 88% 30.11 0.0
07 02:35 Calm 10.00 Fair CLR 57.2 53.6 88% 30.12 0.0
07 02:15 Calm 10.00 Fair CLR 55.4 55.4 100% 30.12 0.0
07 01:55 Calm 10.00 Fair CLR 55.4 53.6 94% 30.12 0.0
07 01:35 Calm 10.00 Fair CLR 55.4 55.4 100% 30.13 0.0
07 01:15 Calm 10.00 Fair CLR 57.2 53.6 88% 30.13 0.0
07 00:55 Calm 10.00 Fair CLR 57.2 53.6 88% 30.13 0.0
07 00:35 Calm 10.00 Fair CLR 57.2 53.6 88% 30.13 0.0
07 00:15 Calm 10.00 Fair CLR 57.2 53.6 88% 30.13 0.0
06 23:35 Calm 10.00 Fair CLR 57.2 53.6 88% 30.13 0.0
06 23:15 Calm 10.00 Fair CLR 55.4 53.6 94% 30.13 0.0
06 22:55 Calm 10.00 Fair CLR 57.2 53.6 88% 30.13 0.0
06 22:35 Calm 10.00 Fair CLR 57.2 53.6 88% 30.13 0.0
06 22:15 Calm 10.00 Fair CLR 57.2 53.6 88% 30.13 0.0
06 21:35 Calm 10.00 Fair CLR 57.2 55.4 94% 30.13 0.0
06 21:15 Calm 10.00 Fair CLR 57.2 53.6 88% 30.13 0.0
06 20:55 Calm 10.00 Fair CLR 59 53.6 82% 30.13 0.0
06 20:35 Calm 10.00 Fair CLR 59 53.6 82% 30.12 0.0
06 20:15 Calm 10.00 Fair CLR 59 55.4 88% 30.11 0.0
06 19:55 Calm 10.00 Fair CLR 60.8 55.4 83% 30.11 0.0
06 19:35 Calm 10.00 Fair CLR 62.6 55.4 77% 30.11 0.0
06 19:15 Calm 10.00 Fair CLR 62.6 55.4 77% 30.11 0.0
06 18:55 Calm 10.00 Fair CLR 64.4 55.4 73% 30.1 0.0
06 18:35 Calm 10.00 Fair CLR 64.4 55.4 73% 30.1 0.0
06 18:15 Calm 10.00 Fair CLR 64.4 55.4 73% 30.1 0.0
06 17:55 Calm 10.00 Fair CLR 66.2 55.4 68% 30.1 0.0
06 17:35 Calm 10.00 Fair CLR 66.2 55.4 68% 30.1 0.0
06 17:15 E 5 10.00 Fair CLR 66.2 55.4 68% 30.1 0.0
06 16:55 Calm 10.00 Fair CLR 66.2 55.4 68% 30.1 0.0
06 16:35 Calm 10.00 Fair CLR 66.2 55.4 68% 30.1 0.0
06 16:15 Calm 10.00 Fair CLR 66.2 55.4 68% 30.11 0.0
06 15:55 Calm 10.00 Fair CLR 66.2 53.6 64% 30.11 0.0
06 15:35 E 7 10.00 Fair CLR 64.4 53.6 68% 30.12 0.0
06 15:15 Calm 10.00 Fair CLR 64.4 53.6 68% 30.13 0.0
06 14:55 Calm 9.00 Fair CLR 64.4 53.6 68% 30.13 0.0
06 14:35 E 5 10.00 Fair CLR 62.6 53.6 73% 30.13 0.0
06 14:15 Calm 10.00 Fair CLR 64.4 53.6 68% 30.14 0.0
06 13:55 E 3 10.00 Fair CLR 62.6 50 64% 30.14 0.0
06 13:35 E 6 10.00 A Few Clouds FEW019 60.8 50 68% 30.15 0.0
06 13:15 Calm 10.00 Partly Cloudy SCT019 59 50 72% 30.15 0.0
06 12:55 Calm 10.00 Overcast OVC019 59 50 72% 30.16 0.0
06 12:35 Calm 10.00 Overcast OVC017 57.2 50 77% 30.16 0.0
06 12:15 Calm 10.00 Overcast OVC017 57.2 50 77% 30.17 0.0
06 11:55 Calm 10.00 Overcast OVC017 57.2 48.2 72% 30.17 0.0
06 11:35 Calm 10.00 Overcast OVC017 57.2 50 77% 30.17 0.0
06 11:15 Calm 10.00 Overcast OVC015 57.2 48.2 72% 30.17 0.0
06 10:55 Calm 10.00 Overcast OVC015 55.4 48.2 77% 30.17 0.0
06 10:35 Calm 10.00 Overcast OVC015 55.4 48.2 77% 30.17 0.0
06 10:15 Calm 10.00 Overcast OVC015 55.4 48.2 77% 30.17 0.0
06 09:55 Calm 10.00 Overcast OVC015 55.4 48.2 77% 30.17 0.0
06 09:35 Calm 10.00 Overcast OVC015 53.6 48.2 82% 30.17 0.0
06 09:15 Calm 10.00 Overcast OVC015 53.6 46.4 77% 30.16 0.0
06 08:55 Calm 10.00 Overcast OVC017 53.6 46.4 77% 30.16 0.0
06 08:35 Calm 10.00 Overcast OVC019 53.6 46.4 77% 30.16 0.0
06 08:15 Calm 10.00 Overcast OVC019 53.6 48.2 82% 30.16 0.0
06 07:55 Calm 10.00 Overcast OVC019 53.6 50 88% 30.16 0.0
06 07:35 Calm 10.00 Overcast OVC019 51.8 50 94% 30.16 0.0
06 07:15 Calm 10.00 Overcast OVC019 50 50 100% 30.15 0.0
06 06:55 Calm 10.00 Overcast OVC021 50 50 100% 30.15 0.0
06 06:35 Calm 10.00 Overcast OVC021 50 50 100% 30.14 0.0
06 06:15 Calm 10.00 Overcast OVC021 50 50 100% 30.14 0.0
06 05:55 Calm 10.00 Overcast OVC021 50 50 100% 30.14 0.0
06 05:35 Calm 8.00 Overcast OVC021 50 50 100% 30.13 0.0
06 05:15 Calm 0.50 Overcast BKN002 OVC021 50 50 100% 30.13 0.0
06 04:55 Calm 1.00 Overcast BKN002 OVC021 50 50 100% 30.13 0.0
06 04:35 Calm 0.50 Overcast OVC002 50 50 100% 30.13 0.0
06 04:15 Calm 5.00 Overcast BKN002 OVC021 50 50 100% 30.12 0.0
06 03:55 Calm 0.75 Overcast OVC002 50 50 100% 30.12 0.0
06 03:35 Calm 0.25 Overcast OVC002 50 50 100% 30.11 0.0
06 03:15 Calm 0.15 Overcast OVC002 50 50 100% 30.11 0.0
06 02:55 Calm 0.15 Overcast OVC002 50 50 100% 30.11 0.0
06 02:35 Calm 4.00 Overcast OVC002 50 50 100% 30.1 0.0
06 02:15 Calm 2.00 Overcast OVC003 50 50 100% 30.1 0.0
06 01:55 Calm 10.00 Overcast SCT004 OVC023 50 50 100% 30.1 0.0
06 01:35 Calm 10.00 Overcast SCT005 OVC023 50 50 100% 30.11 0.0
06 01:15 Calm 10.00 Overcast SCT006 OVC023 50 50 100% 30.11 0.0
06 00:55 Calm 10.00 Overcast BKN007 OVC023 50 50 100% 30.11 0.0
06 00:35 Calm 10.00 Overcast FEW010 OVC025 50 50 100% 30.11 0.0
06 00:15 Calm 10.00 Overcast SCT012 OVC023 50 50 100% 30.1 0.0
05 23:55 Calm 10.00 Overcast SCT010 SCT014 OVC025 50 50 100% 30.1 0.0
05 23:35 Calm 10.00 Overcast OVC025 50 50 100% 30.09 0.0
05 22:55 Calm 10.00 Overcast OVC025 50 50 100% 30.08 0.0
05 22:35 Calm 9.00 Overcast OVC025 50 50 100% 30.08 0.0
05 22:15 Calm 10.00 Overcast OVC025 50 50 100% 30.07 0.0
05 21:55 Calm 10.00 Overcast OVC025 51.8 48.2 88% 30.07 0.0
05 21:35 Calm 10.00 Overcast OVC025 51.8 48.2 88% 30.07 0.0
05 21:15 Calm 10.00 Overcast OVC025 50 48.2 94% 30.06 0.0
05 20:55 Calm 10.00 Overcast OVC025 50 50 100% 30.05 0.0
05 20:35 Calm 10.00 Overcast OVC025 50 50 100% 30.05 0.0
05 20:15 Calm 10.00 Overcast OVC023 50 50 100% 30.04 0.0
05 19:55 Calm 10.00 Overcast OVC023 50 50 100% 30.03 0.0
05 19:35 Calm 10.00 Overcast OVC023 50 50 100% 30.02 0.0
05 19:15 Calm 10.00 Overcast OVC023 50 50 100% 30.02 0.0
05 18:55 Calm 10.00 Overcast BKN013 OVC023 50 50 100% 30.02 0.0
05 18:35 Calm 10.00 Overcast OVC013 50 50 100% 30.02 0.0
05 18:15 Calm 10.00 Overcast OVC011 50 50 100% 30.02 0.0
05 17:55 Calm 8.00 Overcast FEW002 OVC009 50 50 100% 30.02 0.0
05 17:35 Calm 1.50 Mostly Cloudy BKN002 BKN009 50 50 100% 30.01 0.0
05 17:15 Calm 0.50 Overcast OVC002 50 50 100% 30.01 0.0
05 16:55 Calm 0.75 Overcast OVC002 50 50 100% 30.01 0.0
05 16:35 Calm 0.50 Mostly Cloudy BKN002 50 50 100% 30.01 0.0
05 16:15 Calm 0.50 Mostly Cloudy BKN002 50 50 100% 30.01 0.0
05 15:55 Calm 0.15 Overcast OVC002 50 50 100% 30.01 0.0
05 15:35 Calm 0.75 Overcast OVC002 50 50 100% 30.01 0.0
05 15:15 Calm 10.00 Overcast FEW004 BKN008 OVC013 50 48.2 94% 30.01 0.0
05 14:55 Calm 10.00 Overcast BKN008 OVC013 50 48.2 94% 30.01 0.0
05 14:35 Calm 10.00 Overcast OVC008 50 48.2 94% 30.01 0.0
05 14:15 Calm 10.00 Mostly Cloudy BKN008 50 48.2 94% 30.01 0.0
05 13:55 Calm 10.00 Overcast BKN008 OVC013 50 48.2 94% 30.01 0.0
05 13:35 Calm 10.00 Overcast SCT006 OVC013 50 48.2 94% 30.01 0.0
05 13:15 Calm 10.00 Overcast BKN005 BKN009 OVC013 50 48.2 94% 30.01 0.0
05 12:55 Calm 10.00 Overcast BKN005 OVC013 50 48.2 94% 30 0.0
05 12:35 Calm 10.00 Overcast BKN005 OVC013 50 48.2 94% 30.01 0.0
05 12:15 Calm 9.00 Mostly Cloudy SCT004 BKN013 50 48.2 94% 30.01 0.0
05 11:55 Calm 8.00 Mostly Cloudy SCT004 BKN009 BKN013 50 48.2 94% 30 0.0
05 11:35 Calm 6.00 Mostly Cloudy SCT005 BKN010 48.2 48.2 100% 30 0.0
05 11:15 Calm 10.00 Overcast BKN004 OVC010 48.2 48.2 100% 30 0.0
05 10:55 Calm 10.00 Overcast BKN004 OVC008 48.2 48.2 100% 30 0.0
05 10:35 Calm 10.00 Overcast BKN006 BKN011 OVC019 48.2 46.4 94% 29.99 0.0
05 10:15 Calm 10.00 Overcast BKN005 OVC019 48.2 46.4 94% 29.98 0.0
05 09:55 Calm 10.00 Overcast BKN004 BKN013 OVC020 48.2 48.2 100% 29.99 0.0
05 09:35 Calm 9.00 Overcast SCT005 BKN017 OVC024 48.2 48.2 100% 29.98 0.0
05 09:15 Calm 10.00 Mostly Cloudy FEW006 SCT013 BKN024 48.2 46.4 94% 29.98 0.0
05 08:55 Calm 10.00 Overcast FEW006 SCT025 OVC041 50 46.4 88% 29.98 0.0
05 08:35 Calm 10.00 Overcast FEW006 BKN023 OVC032 48.2 46.4 94% 29.98 0.0
05 08:15 Calm 10.00 Overcast OVC023 48.2 46.4 94% 29.98 0.0
05 07:55 Calm 10.00 Overcast OVC023 46.4 46.4 100% 29.97 0.0
05 07:35 Calm 10.00 Overcast OVC023 46.4 46.4 100% 29.97 0.0
05 07:15 Calm 10.00 Overcast OVC023 46.4 46.4 100% 29.96 0.0
05 06:55 Calm 10.00 Overcast OVC023 46.4 44.6 93% 29.96 0.0
05 06:35 Calm 10.00 Overcast OVC025 44.6 44.6 100% 29.95 0.0
05 06:15 Calm 10.00 Overcast OVC025 44.6 44.6 100% 29.95 0.0
05 05:55 Calm 10.00 Overcast OVC023 44.6 44.6 100% 29.95 0.0
05 05:35 Calm 10.00 Overcast OVC021 44.6 44.6 100% 29.96 0.0
05 05:15 Calm 7.00 Overcast OVC019 46.4 46.4 100% 29.95 0.0
05 04:55 Calm 10.00 Overcast OVC021 46.4 46.4 100% 29.95 0.0
05 04:35 Calm 10.00 Overcast OVC023 46.4 46.4 100% 29.95 0.0
05 04:15 Calm 10.00 Overcast BKN025 OVC030 46.4 46.4 100% 29.95 0.0
05 03:55 Calm 10.00 Overcast OVC025 44.6 44.6 100% 29.95 0.0
05 03:35 Calm 10.00 Overcast SCT025 OVC035 44.6 44.6 100% 29.96 0.0
05 03:15 Calm 8.00 Overcast OVC035 44.6 44.6 100% 29.95 0.0
05 02:55 Calm 10.00 Overcast SCT027 OVC037 44.6 44.6 100% 29.96 0.0 0.01
05 02:35 Calm 1.00 Overcast BKN012 OVC027 46.4 46.4 100% 29.97 0.0 0.01
05 02:15 Calm 1.50 Overcast OVC027 46.4 46.4 100% 29.97 0.0 0.01
05 01:55 Calm 7.00 Overcast OVC027 46.4 44.6 93% 29.97 0.0 0.02
05 01:35 Calm 9.00 Overcast OVC027 46.4 44.6 93% 29.97 0.0 0.02
05 01:15 Calm 10.00 Overcast FEW008 OVC027 46.4 46.4 100% 29.98 0.0
05 00:55 Calm 5.00 Overcast FEW002 SCT008 OVC027 44.6 44.6 100% 29.99 0.0
05 00:35 Calm 1.75 Overcast OVC029 44.6 44.6 100% 29.98 0.0
05 00:15 Calm 0.50 Overcast OVC029 46.4 46.4 100% 29.98 0.0
04 23:55 Calm 8.00 Overcast OVC029 44.6 44.6 100% 29.98 0.0 0.01
04 23:35 Calm 8.00 Overcast FEW001 FEW011 OVC029 44.6 44.6 100% 29.98 0.0
04 23:15 Calm 0.50 Overcast BKN001 BKN030 OVC060 46.4 46.4 100% 29.99 0.0
04 22:55 Calm 10.00 Overcast SCT046 BKN060 OVC075 46.4 44.6 93% 29.98 0.0 0.01
04 22:35 Calm 9.00 Overcast FEW034 BKN060 OVC075 46.4 44.6 93% 29.98 0.0 0.01
Date Time (pdt) Wind (mph) Vis. (mi.) Weather Sky Cond. Air Dwpt Max. Min. Relative Humidity Wind Chill (°F) Heat Index (°F) altimeter (in) sea level (mb) 1 hr 3 hr 6 hr
6 hour
Temperature (ºF) Pressure Precipitation (in)